createdAt,value
2019-03-10T00:01:35.221Z,99335.59
2019-03-10T00:04:03.358Z,99343.25
2019-03-10T00:06:31.202Z,99337.84
2019-03-10T00:08:59.048Z,99331.94
2019-03-10T00:11:26.860Z,99333.09
2019-03-10T00:13:54.678Z,99324.41
2019-03-10T00:16:22.455Z,99329.49
2019-03-10T00:18:50.272Z,99330.31
2019-03-10T00:21:18.011Z,99329.98
2019-03-10T00:23:45.872Z,99327.52
2019-03-10T00:26:13.639Z,99319.69
2019-03-10T00:28:41.414Z,99319.52
2019-03-10T00:31:09.243Z,99320.02
2019-03-10T00:33:37.062Z,99312.12
2019-03-10T00:36:04.901Z,99312.95
2019-03-10T00:39:13.580Z,99308.53
2019-03-10T00:42:35.261Z,99305.58
2019-03-10T00:46:21.167Z,99308.36
2019-03-10T00:49:38.581Z,99307.22
2019-03-10T00:52:18.221Z,99302.61
2019-03-10T00:54:49.013Z,99305.38
2019-03-10T00:57:16.811Z,99307.14
2019-03-10T00:59:44.538Z,99307.48
2019-03-10T01:02:15.639Z,99299.97
2019-03-10T01:04:43.640Z,99298.31
2019-03-10T01:07:12.754Z,99294.05
2019-03-10T01:09:40.525Z,99295.03
2019-03-10T01:12:08.640Z,99295.39
2019-03-10T01:14:36.556Z,99285.71
2019-03-10T01:17:04.524Z,99279.02
2019-03-10T01:19:32.963Z,99272.97
2019-03-10T01:22:00.783Z,99267.88
2019-03-10T01:24:28.912Z,99260.19
2019-03-10T01:26:56.701Z,99265.76
2019-03-10T01:29:24.549Z,99255.94
2019-03-10T01:32:57.305Z,99253.16
2019-03-10T01:35:30.768Z,99251.80
2019-03-10T01:37:58.690Z,99246.09
2019-03-10T01:40:26.513Z,99252.48
2019-03-10T01:42:54.301Z,99248.06
2019-03-10T01:45:22.285Z,99241.19
2019-03-10T01:47:50.144Z,99234.81
2019-03-10T01:50:17.896Z,99222.38
2019-03-10T01:52:45.707Z,99212.87
2019-03-10T01:55:13.548Z,99198.63
2019-03-10T01:57:41.410Z,99201.75
2019-03-10T02:00:12.609Z,99198.98
2019-03-10T02:02:40.482Z,99197.50
2019-03-10T02:05:08.391Z,99186.88
2019-03-10T02:07:36.248Z,99193.23
2019-03-10T02:10:06.033Z,99188.83
2019-03-10T02:12:33.830Z,99191.28
2019-03-10T02:15:41.768Z,99186.70
2019-03-10T02:18:09.563Z,99180.78
2019-03-10T02:20:37.396Z,99179.48
2019-03-10T02:23:05.245Z,99170.16
2019-03-10T02:25:33.168Z,99160.33
2019-03-10T02:28:01.072Z,99159.84
2019-03-10T02:30:28.845Z,99149.36
2019-03-10T02:32:56.583Z,99140.84
2019-03-10T02:35:24.532Z,99130.88
2019-03-10T02:37:52.394Z,99130.05
2019-03-10T02:40:20.223Z,99123.34
2019-03-10T02:42:47.961Z,99123.00
2019-03-10T02:45:15.914Z,99119.41
2019-03-10T02:47:43.731Z,99113.98
2019-03-10T02:50:11.891Z,99104.67
2019-03-10T02:52:39.703Z,99094.36
2019-03-10T02:55:08.275Z,99089.61
2019-03-10T02:57:36.066Z,99088.30
2019-03-10T03:00:06.705Z,99079.75
2019-03-10T03:02:34.488Z,99072.23
2019-03-10T03:05:02.307Z,99072.39
2019-03-10T03:07:30.144Z,99066.16
2019-03-10T03:09:57.948Z,99062.23
2019-03-10T03:12:25.732Z,99053.89
2019-03-10T03:14:53.481Z,99036.20
2019-03-10T03:17:21.280Z,99027.70
2019-03-10T03:19:49.078Z,99012.64
2019-03-10T03:22:16.869Z,99020.38
2019-03-10T03:24:44.641Z,99018.55
2019-03-10T03:27:12.509Z,99015.77
2019-03-10T03:29:40.227Z,99017.75
2019-03-10T03:32:08.013Z,99013.17
2019-03-10T03:34:36.042Z,99011.67
2019-03-10T03:37:04.897Z,98999.39
2019-03-10T03:39:43.377Z,98996.28
2019-03-10T03:42:11.180Z,98988.77
2019-03-10T03:44:38.997Z,98983.36
2019-03-10T03:47:06.802Z,98973.05
2019-03-10T03:49:34.560Z,98963.55
2019-03-10T03:52:02.363Z,98961.56
2019-03-10T03:54:30.151Z,98957.64
2019-03-10T03:56:57.926Z,98958.45
2019-03-10T03:59:25.728Z,98946.02
2019-03-10T04:02:00.729Z,98936.03
2019-03-10T04:04:28.634Z,98936.66
2019-03-10T04:06:56.455Z,98930.09
2019-03-10T04:09:24.264Z,98923.55
2019-03-10T04:11:52.055Z,98927.80
2019-03-10T04:14:19.839Z,98925.50
2019-03-10T04:16:47.631Z,98919.45
2019-03-10T04:19:15.349Z,98920.28
2019-03-10T04:21:43.180Z,98912.27
2019-03-10T04:24:11.029Z,98909.63
2019-03-10T04:26:38.946Z,98900.16
2019-03-10T04:29:06.693Z,98897.71
2019-03-10T04:31:34.458Z,98889.05
2019-03-10T04:34:12.564Z,98872.48
2019-03-10T04:36:40.369Z,98863.64
2019-03-10T04:39:08.128Z,98854.95
2019-03-10T04:41:35.955Z,98847.56
2019-03-10T04:44:08.876Z,98839.34
2019-03-10T04:46:36.669Z,98832.14
2019-03-10T04:49:04.432Z,98825.92
2019-03-10T04:51:32.264Z,98825.30
2019-03-10T04:54:00.005Z,98816.30
2019-03-10T04:56:32.712Z,98807.13
2019-03-10T04:59:00.540Z,98803.55
2019-03-10T05:01:28.409Z,98798.16
2019-03-10T05:03:56.190Z,98775.04
2019-03-10T05:06:23.998Z,98768.02
2019-03-10T05:08:51.839Z,98766.06
2019-03-10T05:11:19.675Z,98757.71
2019-03-10T05:13:47.438Z,98753.58
2019-03-10T05:16:15.165Z,98745.68
2019-03-10T05:18:42.920Z,98743.35
2019-03-10T05:21:10.690Z,98744.48
2019-03-10T05:23:41.028Z,98740.05
2019-03-10T05:26:08.941Z,98733.04
2019-03-10T05:28:43.288Z,98731.29
2019-03-10T05:31:11.041Z,98725.73
2019-03-10T05:33:38.813Z,98719.03
2019-03-10T05:36:06.637Z,98715.63
2019-03-10T05:38:34.453Z,98718.25
2019-03-10T05:41:02.203Z,98714.38
2019-03-10T05:43:30.017Z,98711.77
2019-03-10T05:45:57.980Z,98709.17
2019-03-10T05:48:25.784Z,98712.25
2019-03-10T05:50:53.565Z,98715.17
2019-03-10T05:53:21.401Z,98712.75
2019-03-10T05:55:54.296Z,98700.98
2019-03-10T05:58:22.370Z,98697.87
2019-03-10T06:00:50.168Z,98702.98
2019-03-10T06:03:18.067Z,98696.16
2019-03-10T06:05:46.087Z,98690.44
2019-03-10T06:08:13.900Z,98693.38
2019-03-10T06:10:41.714Z,98692.52
2019-03-10T06:13:09.533Z,98682.81
2019-03-10T06:15:52.733Z,98680.36
2019-03-10T06:18:20.567Z,98679.03
2019-03-10T06:20:48.298Z,98657.55
2019-03-10T06:23:16.119Z,98650.67
2019-03-10T06:25:49.023Z,98646.56
2019-03-10T06:28:16.833Z,98634.12
2019-03-10T06:30:44.577Z,98630.53
2019-03-10T06:33:12.335Z,98619.05
2019-03-10T06:35:45.248Z,98602.66
2019-03-10T06:38:12.981Z,98587.58
2019-03-10T06:40:40.771Z,98582.95
2019-03-10T06:43:08.591Z,98589.31
2019-03-10T06:45:36.391Z,98572.61
2019-03-10T06:48:04.238Z,98567.37
2019-03-10T06:50:32.003Z,98560.19
2019-03-10T06:52:59.787Z,98562.51
2019-03-10T06:55:27.670Z,98549.37
2019-03-10T06:57:55.460Z,98545.45
2019-03-10T07:00:23.251Z,98536.73
2019-03-10T07:02:51.031Z,98542.11
2019-03-10T07:05:28.913Z,98535.20
2019-03-10T07:07:56.706Z,98531.84
2019-03-10T07:10:24.540Z,98525.26
2019-03-10T07:12:52.325Z,98511.47
2019-03-10T07:15:25.159Z,98495.55
2019-03-10T07:17:52.930Z,98487.28
2019-03-10T07:20:20.758Z,98477.16
2019-03-10T07:22:48.605Z,98466.31
2019-03-10T07:25:21.501Z,98456.08
2019-03-10T07:27:58.344Z,98449.73
2019-03-10T07:30:37.469Z,98449.83
2019-03-10T07:33:20.167Z,98454.67
2019-03-10T07:36:05.882Z,98443.84
2019-03-10T07:38:51.998Z,98433.97
2019-03-10T07:41:41.984Z,98428.07
2019-03-10T07:44:18.327Z,98422.22
2019-03-10T07:47:08.224Z,98423.56
2019-03-10T07:49:55.689Z,98410.63
2019-03-10T07:52:43.073Z,98403.00
2019-03-10T07:55:46.335Z,98399.08
2019-03-10T07:58:33.722Z,98387.73
2019-03-10T08:01:35.969Z,98393.95
2019-03-10T08:04:31.454Z,98391.42
2019-03-10T08:07:07.710Z,98383.22
2019-03-10T08:09:55.115Z,98385.89
2019-03-10T08:12:42.526Z,98370.57
2019-03-10T08:15:30.114Z,98365.13
2019-03-10T08:18:23.600Z,98368.38
2019-03-10T08:21:00.362Z,98360.06
2019-03-10T08:23:57.008Z,98351.25
2019-03-10T08:26:33.337Z,98344.20
2019-03-10T08:29:19.575Z,98339.16
2019-03-10T08:32:06.957Z,98334.56
2019-03-10T08:34:57.492Z,98326.73
2019-03-10T08:37:39.189Z,98321.69
2019-03-10T08:40:26.956Z,98312.10
2019-03-10T08:43:10.963Z,98313.58
2019-03-10T08:45:56.895Z,98306.17
2019-03-10T08:48:45.929Z,98296.16
2019-03-10T08:51:31.291Z,98288.76
2019-03-10T08:54:10.015Z,98284.94
2019-03-10T08:57:00.601Z,98280.88
2019-03-10T08:59:54.075Z,98274.26
2019-03-10T09:02:50.491Z,98263.39
2019-03-10T09:05:36.642Z,98250.30
2019-03-10T09:08:26.928Z,98245.33
2019-03-10T09:11:10.864Z,98230.69
2019-03-10T09:13:56.780Z,98228.17
2019-03-10T09:16:56.547Z,98223.80
2019-03-10T09:19:52.791Z,98214.77
2019-03-10T09:22:52.256Z,98213.30
2019-03-10T09:25:38.387Z,98202.73
2019-03-10T09:28:16.423Z,98196.48
2019-03-10T09:31:00.210Z,98192.16
2019-03-10T09:33:42.592Z,98198.28
2019-03-10T09:36:27.528Z,98193.38
2019-03-10T09:39:17.409Z,98189.54
2019-03-10T09:42:16.650Z,98183.48
2019-03-10T09:44:59.328Z,98175.92
2019-03-10T09:47:56.873Z,98172.30
2019-03-10T09:51:02.367Z,98168.44
2019-03-10T09:53:49.764Z,98161.39
2019-03-10T09:56:38.345Z,98155.13
2019-03-10T09:59:25.890Z,98155.20
2019-03-10T10:02:18.832Z,98129.94
2019-03-10T10:05:12.516Z,98130.01
2019-03-10T10:07:49.250Z,98117.73
2019-03-10T10:10:39.668Z,98107.41
2019-03-10T10:13:45.239Z,98106.81
2019-03-10T10:16:20.984Z,98097.77
2019-03-10T10:19:09.295Z,98083.58
2019-03-10T10:21:55.288Z,98084.50
2019-03-10T10:25:05.826Z,98076.38
2019-03-10T10:27:52.077Z,98073.05
2019-03-10T10:30:30.776Z,98067.90
2019-03-10T10:33:13.057Z,98067.84
2019-03-10T10:36:06.268Z,98064.52
2019-03-10T10:38:52.513Z,98044.98
2019-03-10T10:41:52.220Z,98030.08
2019-03-10T10:44:45.421Z,98035.43
2019-03-10T10:47:27.859Z,98023.45
2019-03-10T10:50:14.060Z,98027.45
2019-03-10T10:53:21.487Z,98019.64
2019-03-10T10:56:21.253Z,98011.44
2019-03-10T10:58:56.280Z,98025.56
2019-03-10T11:01:32.408Z,98028.13
2019-03-10T11:04:13.194Z,98016.91
2019-03-10T11:07:03.652Z,98016.72
2019-03-10T11:09:49.712Z,98022.50
2019-03-10T11:12:40.376Z,98009.42
2019-03-10T11:15:27.804Z,98010.94
2019-03-10T11:18:17.983Z,98019.14
2019-03-10T11:20:56.288Z,98012.06
2019-03-10T11:23:38.172Z,97999.83
2019-03-10T11:26:14.491Z,97994.58
2019-03-10T11:28:48.275Z,97951.39
2019-03-10T11:31:29.664Z,97982.56
2019-03-10T11:34:14.333Z,97978.23
2019-03-10T11:36:52.228Z,97963.84
2019-03-10T11:39:42.401Z,97979.58
2019-03-10T11:42:32.554Z,97964.93
2019-03-10T11:45:26.084Z,97976.45
2019-03-10T11:48:03.717Z,97972.59
2019-03-10T11:50:51.091Z,97989.47
2019-03-10T11:53:56.857Z,97981.77
2019-03-10T11:56:43.089Z,97979.70
2019-03-10T11:59:18.796Z,97990.40
2019-03-10T12:01:57.998Z,97966.17
2019-03-10T12:05:06.749Z,97938.54
2019-03-10T12:08:00.176Z,97951.28
2019-03-10T12:10:28.031Z,97933.86
2019-03-10T12:12:55.835Z,97909.66
2019-03-10T12:15:23.940Z,97908.02
2019-03-10T12:17:53.186Z,97890.94
2019-03-10T12:20:20.999Z,97898.66
2019-03-10T12:22:48.775Z,97892.77
2019-03-10T12:25:16.768Z,97873.19
2019-03-10T12:27:47.590Z,97889.13
2019-03-10T12:30:15.640Z,97906.03
2019-03-10T12:32:43.532Z,97885.45
2019-03-10T12:35:11.678Z,97888.37
2019-03-10T12:37:39.457Z,97890.10
2019-03-10T12:40:07.814Z,97861.19
2019-03-10T12:42:35.604Z,97856.45
2019-03-10T12:45:04.028Z,97857.64
2019-03-10T12:47:31.763Z,97787.34
2019-03-10T12:49:59.614Z,97814.20
2019-03-10T12:52:27.475Z,97828.75
2019-03-10T12:54:55.446Z,97850.16
2019-03-10T12:57:23.248Z,97860.42
2019-03-10T12:59:51.154Z,97853.73
2019-03-10T13:02:18.947Z,97874.09
2019-03-10T13:04:46.892Z,97874.32
2019-03-10T13:07:14.749Z,97881.14
2019-03-10T13:09:42.563Z,97896.30
2019-03-10T13:12:10.428Z,97909.08
2019-03-10T13:14:38.227Z,97919.16
2019-03-10T13:17:06.056Z,97901.02
2019-03-10T13:19:33.841Z,97922.66
2019-03-10T13:22:01.606Z,97936.02
2019-03-10T13:24:29.460Z,97940.46
2019-03-10T13:26:59.091Z,97964.30
2019-03-10T13:29:26.906Z,97933.08
2019-03-10T13:31:54.743Z,97931.11
2019-03-10T13:34:22.639Z,97955.06
2019-03-10T13:36:52.027Z,97927.62
2019-03-10T13:39:19.918Z,97918.60
2019-03-10T13:41:47.771Z,97922.89
2019-03-10T13:44:15.559Z,97924.77
2019-03-10T13:46:44.024Z,97920.75
2019-03-10T13:49:11.974Z,97946.67
2019-03-10T13:51:39.800Z,97966.76
2019-03-10T13:54:10.161Z,97944.46
2019-03-10T13:56:38.114Z,97927.46
2019-03-10T13:59:05.930Z,97932.14
2019-03-10T14:01:33.782Z,97935.87
2019-03-10T14:04:01.980Z,97928.43
2019-03-10T14:06:29.797Z,97947.30
2019-03-10T14:08:57.558Z,97928.98
2019-03-10T14:11:25.385Z,97924.63
2019-03-10T14:14:00.047Z,97931.55
2019-03-10T14:16:30.703Z,97940.37
2019-03-10T14:18:58.567Z,97940.84
2019-03-10T14:21:26.382Z,97943.88
2019-03-10T14:23:54.423Z,97936.82
2019-03-10T14:26:22.240Z,97946.76
2019-03-10T14:28:50.071Z,97941.67
2019-03-10T14:31:17.858Z,97945.31
2019-03-10T14:33:45.684Z,97964.16
2019-03-10T14:36:13.527Z,97960.33
2019-03-10T14:38:41.381Z,97960.26
2019-03-10T14:41:09.260Z,97975.60
2019-03-10T14:43:37.164Z,97957.45
2019-03-10T14:46:05.095Z,97962.93
2019-03-10T14:48:32.877Z,97980.61
2019-03-10T14:51:00.770Z,97989.13
2019-03-10T14:53:28.644Z,98001.80
2019-03-10T14:56:01.630Z,97963.59
2019-03-10T14:58:29.583Z,97978.44
2019-03-10T15:00:57.670Z,97989.17
2019-03-10T15:03:25.523Z,97983.38
2019-03-10T15:05:53.641Z,97997.84
2019-03-10T15:08:21.461Z,97984.98
2019-03-10T15:10:49.335Z,98030.23
2019-03-10T15:13:17.219Z,97998.11
2019-03-10T15:15:45.069Z,98023.56
2019-03-10T15:18:12.946Z,98019.78
2019-03-10T15:20:40.770Z,98042.95
2019-03-10T15:23:08.590Z,98041.31
2019-03-10T15:25:36.467Z,98050.88
2019-03-10T15:28:04.247Z,98043.59
2019-03-10T15:30:32.133Z,98060.31
2019-03-10T15:32:59.921Z,98051.64
2019-03-10T15:35:27.761Z,98078.03
2019-03-10T15:37:55.673Z,98054.58
2019-03-10T15:40:23.519Z,98052.04
2019-03-10T15:42:51.333Z,98063.57
2019-03-10T15:45:19.210Z,98075.19
2019-03-10T15:47:47.015Z,98081.42
2019-03-10T15:50:21.007Z,98088.75
2019-03-10T15:52:48.804Z,98087.08
2019-03-10T15:55:16.574Z,98090.53
2019-03-10T15:57:50.064Z,98104.48
2019-03-10T16:00:16.054Z,98110.13
2019-03-10T16:02:43.942Z,98117.52
2019-03-10T16:05:11.911Z,98121.55
2019-03-10T16:07:39.681Z,98115.12
2019-03-10T16:10:08.591Z,98130.94
2019-03-10T16:12:36.428Z,98130.14
2019-03-10T16:15:05.575Z,98130.38
2019-03-10T16:17:33.352Z,98137.59
2019-03-10T16:20:01.114Z,98119.38
2019-03-10T16:22:28.912Z,98114.69
2019-03-10T16:24:56.923Z,98144.53
2019-03-10T16:27:24.744Z,98154.28
2019-03-10T16:29:52.552Z,98152.19
2019-03-10T16:32:20.349Z,98132.41
2019-03-10T16:34:58.475Z,98201.70
2019-03-10T16:37:45.855Z,98195.08
2019-03-10T16:40:14.158Z,98197.06
2019-03-10T16:42:42.057Z,98190.55
2019-03-10T16:45:14.122Z,98242.80
2019-03-10T16:47:41.849Z,98256.19
2019-03-10T16:50:11.113Z,98228.55
2019-03-10T16:52:38.894Z,98242.18
2019-03-10T16:55:08.451Z,98261.38
2019-03-10T16:57:36.267Z,98234.08
2019-03-10T17:00:06.016Z,98265.98
2019-03-10T17:02:33.823Z,98286.40
2019-03-10T17:05:01.837Z,98270.02
2019-03-10T17:07:29.674Z,98298.28
2019-03-10T17:09:59.282Z,98299.84
2019-03-10T17:12:27.111Z,98313.32
2019-03-10T17:14:55.007Z,98286.22
2019-03-10T17:17:22.815Z,98306.25
2019-03-10T17:19:50.783Z,98305.59
2019-03-10T17:22:33.209Z,98322.20
2019-03-10T17:25:06.694Z,98323.91
2019-03-10T17:27:34.531Z,98325.92
2019-03-10T17:30:02.458Z,98339.55
2019-03-10T17:32:30.289Z,98378.98
2019-03-10T17:34:58.219Z,98367.70
2019-03-10T17:37:26.027Z,98372.42
2019-03-10T17:39:53.844Z,98377.77
2019-03-10T17:42:21.675Z,98402.17
2019-03-10T17:44:49.686Z,98436.69
2019-03-10T17:47:17.428Z,98412.41
2019-03-10T17:49:45.169Z,98431.91
2019-03-10T17:52:14.707Z,98438.39
2019-03-10T17:54:43.255Z,98457.17
2019-03-10T17:57:11.110Z,98464.66
2019-03-10T17:59:39.001Z,98486.06
2019-03-10T18:02:09.246Z,98489.80
2019-03-10T18:04:36.687Z,98507.55
2019-03-10T18:07:04.604Z,98521.09
2019-03-10T18:09:32.454Z,98520.92
2019-03-10T18:12:00.307Z,98531.44
2019-03-10T18:14:52.817Z,98560.14
2019-03-10T18:17:20.653Z,98580.45
2019-03-10T18:19:48.524Z,98613.21
2019-03-10T18:22:16.397Z,98627.48
2019-03-10T18:24:44.284Z,98644.84
2019-03-10T18:27:12.080Z,98654.14
2019-03-10T18:29:39.901Z,98669.39
2019-03-10T18:32:07.682Z,98687.95
2019-03-10T18:34:35.711Z,98722.55
2019-03-10T18:37:03.588Z,98701.73
2019-03-10T18:39:31.418Z,98740.42
2019-03-10T18:41:59.152Z,98762.39
2019-03-10T18:44:27.047Z,98767.86
2019-03-10T18:46:54.858Z,98768.58
2019-03-10T18:49:22.718Z,98766.84
2019-03-10T18:51:50.657Z,98748.87
2019-03-10T18:54:18.429Z,98772.80
2019-03-10T18:56:46.279Z,98779.34
2019-03-10T18:59:14.263Z,98758.55
2019-03-10T19:01:42.142Z,98770.98
2019-03-10T19:04:10.101Z,98778.36
2019-03-10T19:06:37.986Z,98798.45
2019-03-10T19:09:06.732Z,98780.30
2019-03-10T19:11:34.601Z,98791.23
2019-03-10T19:14:07.625Z,98794.16
2019-03-10T19:16:35.428Z,98815.23
2019-03-10T19:19:03.327Z,98826.50
2019-03-10T19:21:31.163Z,98833.56
2019-03-10T19:23:59.302Z,98834.36
2019-03-10T19:26:27.582Z,98836.13
2019-03-10T19:28:55.487Z,98828.61
2019-03-10T19:31:23.346Z,98840.86
2019-03-10T19:33:51.321Z,98836.11
2019-03-10T19:36:21.712Z,98833.45
2019-03-10T19:38:49.679Z,98833.43
2019-03-10T19:41:17.693Z,98836.41
2019-03-10T19:43:48.854Z,98828.05
2019-03-10T19:46:17.009Z,98850.60
2019-03-10T19:48:45.040Z,98855.98
2019-03-10T19:51:13.468Z,98865.31
2019-03-10T19:53:41.474Z,98867.14
2019-03-10T19:56:09.401Z,98873.02
2019-03-10T19:58:39.726Z,98879.40
2019-03-10T20:01:07.512Z,98885.63
2019-03-10T20:03:37.749Z,98872.67
2019-03-10T20:06:05.446Z,98883.16
2019-03-10T20:08:33.408Z,98914.47
2019-03-10T20:11:08.108Z,98889.91
2019-03-10T20:13:36.195Z,98921.98
2019-03-10T20:16:04.258Z,98911.34
2019-03-10T20:18:32.101Z,98917.44
2019-03-10T20:20:59.943Z,98946.09
2019-03-10T20:23:28.122Z,98940.20
2019-03-10T20:25:56.040Z,98933.48
2019-03-10T20:28:23.878Z,98951.81
2019-03-10T20:30:51.755Z,98965.10
2019-03-10T20:33:19.604Z,98970.84
2019-03-10T20:35:47.418Z,98991.64
2019-03-10T20:38:15.217Z,98992.62
2019-03-10T20:40:43.092Z,99009.83
2019-03-10T20:43:11.146Z,99015.23
2019-03-10T20:45:39.060Z,99029.00
2019-03-10T20:48:06.957Z,99037.84
2019-03-10T20:50:34.785Z,99040.64
2019-03-10T20:53:02.757Z,99045.06
2019-03-10T20:55:30.634Z,99054.88
2019-03-10T20:57:58.461Z,99068.16
2019-03-10T21:00:26.496Z,99062.90
2019-03-10T21:02:54.436Z,99056.19
2019-03-10T21:05:22.299Z,99071.11
2019-03-10T21:07:50.148Z,99076.34
2019-03-10T21:10:17.971Z,99087.80
2019-03-10T21:12:45.911Z,99103.19
2019-03-10T21:15:15.472Z,99102.52
2019-03-10T21:17:43.392Z,99106.61
2019-03-10T21:20:13.759Z,99122.84
2019-03-10T21:22:41.653Z,99120.23
2019-03-10T21:25:12.841Z,99134.95
2019-03-10T21:27:40.719Z,99132.51
2019-03-10T21:30:15.739Z,99133.81
2019-03-10T21:32:43.575Z,99138.41
2019-03-10T21:35:17.555Z,99120.22
2019-03-10T21:37:41.045Z,99151.02
2019-03-10T21:40:11.416Z,99152.31
2019-03-10T21:42:39.235Z,99151.81
2019-03-10T21:45:07.841Z,99156.72
2019-03-10T21:47:35.711Z,99155.24
2019-03-10T21:50:06.296Z,99163.92
2019-03-10T21:52:34.123Z,99161.48
2019-03-10T21:55:01.996Z,99153.13
2019-03-10T21:57:29.788Z,99169.84
2019-03-10T21:59:57.586Z,99181.60
2019-03-10T22:02:25.370Z,99183.23
2019-03-10T22:04:53.156Z,99196.16
2019-03-10T22:07:20.982Z,99183.55
2019-03-10T22:09:48.819Z,99190.75
2019-03-10T22:12:16.595Z,99200.19
2019-03-10T22:14:44.424Z,99206.53
2019-03-10T22:17:12.343Z,99197.36
2019-03-10T22:19:40.190Z,99203.73
2019-03-10T22:22:08.018Z,99209.30
2019-03-10T22:24:35.820Z,99225.82
2019-03-10T22:27:03.619Z,99237.77
2019-03-10T22:29:31.413Z,99247.59
2019-03-10T22:31:59.198Z,99262.30
2019-03-10T22:34:27.209Z,99266.28
2019-03-10T22:36:54.988Z,99269.41
2019-03-10T22:39:22.794Z,99291.48
2019-03-10T22:41:50.555Z,99284.52
2019-03-10T22:44:18.556Z,99289.34
2019-03-10T22:46:46.351Z,99251.69
2019-03-10T22:49:14.172Z,99285.73
2019-03-10T22:51:41.977Z,99296.27
2019-03-10T22:54:09.878Z,99296.53
2019-03-10T22:56:37.651Z,99305.61
2019-03-10T22:59:05.501Z,99312.96
2019-03-10T23:01:33.338Z,99330.80
2019-03-10T23:04:01.291Z,99345.61
2019-03-10T23:06:29.146Z,99377.38
2019-03-10T23:08:56.989Z,99384.37
2019-03-10T23:11:24.785Z,99406.93
2019-03-10T23:13:52.555Z,99413.61
2019-03-10T23:16:20.392Z,99419.93
2019-03-10T23:18:48.242Z,99404.57
2019-03-10T23:21:16.048Z,99405.20
2019-03-10T23:23:43.880Z,99384.93
2019-03-10T23:26:11.651Z,99404.64
2019-03-10T23:28:39.493Z,99401.59
2019-03-10T23:31:07.254Z,99413.18
2019-03-10T23:33:35.067Z,99412.75
2019-03-10T23:36:02.848Z,99413.38
2019-03-10T23:38:30.598Z,99399.63
2019-03-10T23:40:58.391Z,99412.56
2019-03-10T23:43:26.170Z,99430.80
2019-03-10T23:45:54.007Z,99432.53
2019-03-10T23:48:21.882Z,99435.58
2019-03-10T23:50:49.693Z,99442.05
2019-03-10T23:53:17.522Z,99435.95
2019-03-10T23:55:45.529Z,99434.44
2019-03-10T23:58:13.355Z,99441.10
